Corona Range LRC Data

Date Time Air Temperature Relative Humidity Dewpoint Windchill Heat Index Wind Speed Wind Dir. Rain Solar Radiation Soil Temperature
2m 2m 3m 3m 10cm
US/Mountain F % F F F MPH deg in MJ/m^2 F
max avg avg
2021-05-04 00:05:00 39.8 92.1 37.7 35.5 39.8 6.0 8.8 7.1 15.5 12.8 0.00 0.0000000 61.8
2021-05-04 00:10:00 39.8 91.9 37.7 35.4 39.8 6.2 9.6 7.1 66.9 16.0 0.00 0.0000000 61.7
2021-05-04 00:15:00 39.8 90.7 37.3 34.3 39.8 8.0 9.7 8.1 13.4 20.7 0.00 0.0000000 61.7
2021-05-04 00:20:00 39.8 91.7 37.6 33.9 39.8 8.8 8.8 7.4 51.3 22.3 0.00 0.0000000 61.6
2021-05-04 00:25:00 39.7 90.3 37.1 33.7 39.7 9.0 11.3 9.0 8.6 28.7 0.00 0.0000000 61.5
2021-05-04 00:30:00 39.6 90.4 37.0 33.5 39.6 9.0 14.2 10.9 42.7 23.2 0.00 0.0000000 61.5
2021-05-04 00:35:00 39.6 91.0 37.2 33.6 39.6 8.8 11.2 9.5 24.6 21.0 0.00 0.0000000 61.4
2021-05-04 00:40:00 39.5 90.7 37.0 33.8 39.5 8.3 11.5 9.1 16.3 22.9 0.00 0.0000000 61.3
2021-05-04 00:45:00 39.5 90.6 37.0 33.3 39.5 9.2 10.8 9.0 35.9 20.8 0.00 0.0000000 61.3
2021-05-04 00:50:00 39.6 90.7 37.1 33.7 39.6 8.7 12.1 10.0 25.8 32.3 0.00 0.0000000 61.3
2021-05-04 00:55:00 39.5 90.7 37.0 33.5 39.5 9.0 11.0 8.5 38.8 24.1 0.00 0.0000000 61.2
2021-05-04 01:00:00 39.6 90.4 37.0 35.2 39.6 6.0 9.2 7.7 22.1 22.5 0.00 0.0000000 61.1
2021-05-04 01:05:00 39.5 90.8 37.0 34.4 39.5 7.1 10.3 8.1 24.7 26.0 0.00 0.0000000 61.1
2021-05-04 01:10:00 39.5 91.9 37.4 34.8 39.5 6.5 9.4 7.7 17.7 20.2 0.00 0.0000000 61.0
2021-05-04 01:15:00 39.5 91.6 37.2 34.3 39.5 7.2 9.7 7.7 25.6 26.8 0.00 0.0000000 60.9
2021-05-04 01:20:00 39.4 90.1 36.7 33.3 39.4 9.0 9.9 8.4 21.4 26.2 0.00 0.0000000 60.9
2021-05-04 01:25:00 39.4 90.6 36.9 34.1 39.4 7.6 9.7 8.0 30.6 31.0 0.00 0.0000000 60.9
2021-05-04 01:30:00 39.4 90.5 36.9 33.8 39.4 8.1 9.6 8.2 42.3 33.5 0.00 0.0000000 60.8
2021-05-04 01:35:00 39.4 91.2 37.0 34.6 39.4 6.7 8.5 6.9 13.8 30.2 0.00 0.0000000 60.7
2021-05-04 01:40:00 39.4 90.9 37.0 32.8 39.4 10.1 10.8 8.5 31.9 21.7 0.00 0.0000000 60.7
2021-05-04 01:45:00 39.4 90.8 36.9 34.8 39.4 6.3 10.3 8.0 41.3 21.0 0.00 0.0000000 60.6
2021-05-04 01:50:00 39.4 89.9 36.7 33.0 39.4 9.7 9.7 7.4 32.9 19.6 0.00 0.0000000 60.5
2021-05-04 01:55:00 39.4 89.9 36.7 34.6 39.4 6.7 9.4 7.6 7.9 14.9 0.00 0.0000000 60.5
2021-05-04 02:00:00 39.2 89.0 36.2 33.1 39.2 9.0 11.0 9.0 32.7 22.9 0.00 0.0000000 60.5
2021-05-04 02:05:00 39.2 89.2 36.2 33.5 39.2 8.1 10.6 8.4 2.9 11.1 0.00 0.0000000 60.4
2021-05-04 02:10:00 39.2 89.2 36.2 32.9 39.2 9.2 10.1 7.7 49.4 18.9 0.00 0.0000000 60.4
2021-05-04 02:15:00 39.0 90.1 36.4 34.0 39.0 6.9 8.8 7.4 28.6 18.5 0.00 0.0000000 60.3
2021-05-04 02:20:00 39.2 90.8 36.8 33.5 39.2 8.1 8.3 6.9 56.0 26.8 0.00 0.0000000 60.2
2021-05-04 02:25:00 39.2 91.4 36.9 34.3 39.2 6.7 8.3 6.9 12.6 29.1 0.00 0.0000000 60.2
2021-05-04 02:30:00 39.2 92.3 37.1 34.7 39.2 6.0 7.6 6.5 9.5 30.2 0.00 0.0000000 60.2
2021-05-04 02:35:00 39.1 92.1 37.0 33.8 39.1 7.4 8.1 6.7 32.4 20.9 0.00 0.0000000 60.1
2021-05-04 02:40:00 39.0 92.5 37.1 34.6 39.0 6.0 7.2 6.0 12.6 29.9 0.00 0.0000000 60.1
2021-05-04 02:45:00 39.2 92.7 37.2 35.4 39.2 5.1 7.8 6.1 58.4 34.8 0.00 0.0000000 60.0
2021-05-04 02:50:00 39.3 92.5 37.3 35.1 39.3 5.6 8.8 6.9 19.7 25.7 0.00 0.0000000 60.0
2021-05-04 02:55:00 39.3 92.3 37.3 35.7 39.3 4.9 7.6 5.9 28.9 39.0 0.00 0.0000000 59.9
2021-05-04 03:00:00 39.4 92.7 37.5 35.7 39.4 5.1 6.2 5.4 6.9 32.2 0.00 0.0000000 59.9
2021-05-04 03:05:00 39.4 92.7 37.5 36.3 39.4 4.4 5.8 4.6 12.9 27.9 0.00 0.0000000 59.8
2021-05-04 03:10:00 39.5 91.5 37.2 34.9 39.5 6.3 7.6 6.1 17.1 18.5 0.00 0.0000000 59.8
2021-05-04 03:15:00 39.4 91.4 37.1 34.6 39.4 6.7 8.1 6.7 36.9 26.7 0.00 0.0000000 59.8
2021-05-04 03:20:00 39.4 91.6 37.2 35.0 39.4 6.0 8.1 6.4 36.5 24.1 0.00 0.0000000 59.7
2021-05-04 03:25:00 39.4 92.0 37.3 34.4 39.4 7.1 8.3 6.6 12.9 24.0 0.00 0.0000000 59.7
2021-05-04 03:30:00 39.5 92.6 37.5 34.9 39.5 6.3 9.7 7.7 36.3 21.1 0.00 0.0000000 59.7
2021-05-04 03:35:00 39.5 92.8 37.6 35.3 39.5 5.8 9.2 7.2 27.8 22.8 0.00 0.0000000 59.6
2021-05-04 03:40:00 39.5 91.8 37.3 33.9 39.5 8.1 9.4 7.2 21.4 21.7 0.00 0.0000000 59.6
2021-05-04 03:45:00 39.4 91.7 37.2 33.8 39.4 8.1 9.7 7.6 30.9 25.9 0.00 0.0000000 59.5
2021-05-04 03:50:00 39.5 91.8 37.3 33.5 39.5 8.8 9.4 7.3 7.0 20.3 0.00 0.0000000 59.5
2021-05-04 03:55:00 39.5 92.3 37.5 34.1 39.5 7.8 11.0 8.7 18.0 16.7 0.00 0.0000000 59.5
2021-05-04 04:00:00 39.5 92.6 37.5 33.3 39.5 9.2 10.5 8.2 31.3 30.3 0.00 0.0000000 59.5
2021-05-04 04:05:00 39.4 92.9 37.5 34.4 39.4 7.1 9.9 7.9 13.1 15.9 0.00 0.0000000 59.4
2021-05-04 04:10:00 39.4 93.1 37.6 34.5 39.4 6.9 9.2 7.1 22.7 24.9 0.00 0.0000000 59.4
2021-05-04 04:15:00 39.4 92.7 37.5 34.5 39.4 6.9 8.8 6.8 50.1 35.9 0.00 0.0000000 59.3
2021-05-04 04:20:00 39.5 91.8 37.3 33.9 39.5 8.0 8.8 7.3 52.4 28.6 0.00 0.0000000 59.3
2021-05-04 04:25:00 39.5 92.2 37.4 35.2 39.5 5.8 8.5 6.7 21.9 35.8 0.00 0.0000000 59.3
2021-05-04 04:30:00 39.5 91.9 37.3 34.0 39.5 7.8 8.3 6.9 51.9 29.8 0.00 0.0000000 59.2
2021-05-04 04:35:00 39.4 91.2 37.0 34.7 39.4 6.5 8.0 6.5 55.3 34.0 0.00 0.0000000 59.2
2021-05-04 04:40:00 39.4 91.4 37.1 33.9 39.4 8.0 8.3 6.5 44.6 31.4 0.00 0.0000000 59.2
2021-05-04 04:45:00 39.4 90.6 36.9 33.7 39.4 8.3 9.2 6.9 7.2 33.0 0.00 0.0000000 59.1
2021-05-04 04:50:00 39.3 90.5 36.8 33.6 39.3 8.3 8.5 7.1 46.4 32.4 0.00 0.0000000 59.1
2021-05-04 04:55:00 39.3 90.5 36.8 33.5 39.3 8.5 9.9 7.8 34.5 34.2 0.00 0.0000000 59.1
2021-05-04 05:00:00 39.3 90.5 36.7 33.6 39.3 8.1 11.5 8.9 9.7 24.5 0.00 0.0000000 59.0
2021-05-04 05:05:00 39.2 90.1 36.6 33.9 39.2 7.4 11.2 9.2 54.6 26.5 0.00 0.0000000 59.0
2021-05-04 05:10:00 39.2 90.3 36.6 33.5 39.2 8.1 10.8 8.0 35.9 28.8 0.00 0.0000000 59.0
2021-05-04 05:15:00 39.2 91.0 36.8 34.5 39.2 6.3 9.9 8.0 40.8 30.6 0.00 0.0000000 58.9
2021-05-04 05:20:00 39.2 90.9 36.7 34.0 39.2 7.2 9.0 6.8 50.7 37.7 0.00 0.0000000 58.9
2021-05-04 05:25:00 39.2 91.0 36.8 34.0 39.2 7.2 8.5 6.8 23.9 45.4 0.00 0.0000000 58.8
2021-05-04 05:30:00 39.0 91.2 36.7 34.0 39.0 6.9 8.3 6.8 26.0 30.2 0.00 0.0000000 58.8
2021-05-04 05:35:00 39.1 91.4 36.8 34.8 39.1 5.8 7.2 6.0 45.4 40.7 0.00 0.0000000 58.8
2021-05-04 05:40:00 39.0 91.0 36.6 34.2 39.0 6.5 7.8 5.9 66.3 51.5 0.00 0.0000000 58.8
2021-05-04 05:45:00 39.0 91.6 36.8 36.3 39.0 3.8 7.2 5.1 69.5 43.6 0.00 0.0000000 58.7
2021-05-04 05:50:00 39.1 91.0 36.7 35.6 39.1 4.7 7.1 4.8 47.0 49.8 0.00 0.0000000 58.7
2021-05-04 05:55:00 39.0 91.6 36.8 35.0 39.0 5.5 7.6 6.1 57.5 47.3 0.00 0.0000000 58.7
2021-05-04 06:00:00 39.1 91.0 36.7 35.2 39.1 5.3 5.8 4.7 46.2 54.7 0.00 0.0000000 58.6
2021-05-04 06:05:00 39.0 90.3 36.4 35.7 39.0 4.6 8.0 6.1 13.3 41.3 0.00 0.0000000 58.6
2021-05-04 06:10:00 39.2 91.4 36.9 36.4 39.2 4.0 6.2 4.6 70.0 46.2 0.00 0.0000000 58.5
2021-05-04 06:15:00 39.2 91.9 37.0 35.5 39.2 4.9 6.9 4.7 45.9 52.5 0.00 0.0000000 58.5
2021-05-04 06:20:00 39.1 90.7 36.6 35.6 39.1 4.7 6.5 5.2 52.8 59.8 0.00 0.0000144 58.5
2021-05-04 06:25:00 39.0 90.8 36.6 34.8 39.0 5.6 8.3 6.0 13.6 23.6 0.00 0.0002932 58.4
2021-05-04 06:30:00 39.1 91.4 36.8 35.6 39.1 4.7 7.8 6.0 1.0 28.6 0.00 0.0009185 58.4
2021-05-04 06:35:00 39.0 90.2 36.4 33.9 39.0 7.1 9.6 6.7 62.7 22.6 0.00 0.0012105 58.4
2021-05-04 06:40:00 39.0 91.1 36.7 35.5 39.0 4.7 9.0 6.2 19.4 18.0 0.00 0.0019617 58.3
2021-05-04 06:45:00 39.0 91.2 36.7 33.4 39.0 8.0 8.7 6.1 7.8 24.6 0.00 0.0023790 58.3
2021-05-04 06:50:00 39.1 91.3 36.8 35.3 39.1 5.1 8.0 5.5 43.8 27.0 0.00 0.0028471 58.3
2021-05-04 06:55:00 39.2 91.3 36.9 35.5 39.2 5.1 6.9 5.2 50.7 26.7 0.00 0.0032500 58.2
2021-05-04 07:00:00 39.1 91.1 36.7 34.3 39.1 6.5 6.9 5.4 98.2 45.5 0.00 0.0039691 58.2
2021-05-04 07:05:00 39.2 91.3 36.8 34.3 39.2 6.7 7.2 5.2 25.1 28.0 0.00 0.0049022 58.2
2021-05-04 07:10:00 39.3 91.5 37.0 36.6 39.3 3.8 6.0 4.6 1.5 37.2 0.00 0.0046144 58.2
2021-05-04 07:15:00 39.3 91.5 37.1 35.1 39.3 5.8 6.7 5.4 46.5 11.4 0.00 0.0052276 58.1
2021-05-04 07:20:00 39.4 91.6 37.2 35.7 39.4 5.1 6.9 4.5 0.5 22.8 0.00 0.0069431 58.1
2021-05-04 07:25:00 39.5 91.1 37.1 37.1 39.5 3.7 7.1 5.4 2.2 10.2 0.00 0.0093803 58.1
2021-05-04 07:30:00 39.6 90.0 37.0 35.8 39.6 5.3 7.1 5.2 96.8 16.2 0.00 0.0127366 58.0
2021-05-04 07:35:00 39.8 90.2 37.2 36.6 39.8 4.6 6.7 4.7 0.7 8.5 0.00 0.0155580 58.0
2021-05-04 07:40:00 40.0 88.2 36.8 34.8 40.0 7.6 7.6 5.5 1.7 26.5 0.00 0.0131872 58.0
2021-05-04 07:45:00 40.0 88.8 36.9 36.3 40.0 5.1 7.1 5.5 0.7 16.8 0.00 0.0129115 57.9
2021-05-04 07:50:00 40.0 88.4 36.8 35.2 40.0 6.7 8.0 6.6 43.4 33.9 0.00 0.0156301 57.9
2021-05-04 07:55:00 40.3 88.5 37.1 36.1 40.3 6.0 6.9 5.4 114.3 16.4 0.00 0.0153267 57.9
2021-05-04 08:00:00 40.4 87.9 37.1 37.5 40.4 4.2 8.5 6.2 86.6 21.7 0.00 0.0175060 57.9
2021-05-04 08:05:00 40.0 87.5 36.6 36.0 40.0 5.6 8.7 6.6 0.5 24.1 0.00 0.0110072 57.8
2021-05-04 08:10:00 39.9 86.4 36.2 35.0 39.9 7.1 9.2 6.9 0.0 25.7 0.00 0.0113888 57.8
2021-05-04 08:15:00 39.5 85.7 35.6 35.2 39.5 6.0 10.5 8.0 1.0 8.3 0.00 0.0137903 57.8
2021-05-04 08:20:00 39.5 86.1 35.7 36.1 39.5 4.7 10.5 7.8 7.1 28.9 0.00 0.0147334 57.8
2021-05-04 08:25:00 39.8 85.6 35.9 35.2 39.8 6.5 9.4 6.1 0.0 15.1 0.00 0.0136053 57.8
2021-05-04 08:30:00 39.8 86.2 36.1 34.1 39.8 8.5 9.6 6.8 2.4 38.1 0.00 0.0158605 57.8
2021-05-04 08:35:00 40.0 84.3 35.7 34.7 40.0 7.8 9.2 6.9 44.2 26.0 0.00 0.0242244 57.7
2021-05-04 08:40:00 40.1 83.0 35.4 36.0 40.1 5.8 10.1 7.2 96.9 24.1 0.00 0.0254645 57.7
2021-05-04 08:45:00 40.4 82.0 35.3 36.2 40.4 6.0 9.0 6.4 5.5 19.3 0.00 0.0307157 57.7
2021-05-04 08:50:00 40.9 82.0 35.8 36.9 40.9 5.8 7.6 6.3 22.1 16.1 0.00 0.0346605 57.7
2021-05-04 08:55:00 41.1 79.5 35.2 36.2 41.1 7.2 9.4 6.9 1.4 28.1 0.00 0.0396641 57.7
2021-05-04 09:00:00 41.1 79.6 35.3 36.4 41.1 7.1 9.2 7.3 117.3 43.1 0.00 0.0448498 57.7
2021-05-04 09:05:00 41.8 78.4 35.6 36.8 41.8 8.0 8.0 5.6 114.4 26.6 0.00 0.0476743 57.7
2021-05-04 09:10:00 41.8 80.0 36.1 38.8 41.8 4.7 8.7 6.3 4.0 53.5 0.00 0.0539349 57.7
2021-05-04 09:15:00 41.8 80.0 36.1 36.8 41.8 7.8 9.2 6.6 91.0 29.2 0.00 0.0406223 57.7
2021-05-04 09:20:00 41.6 78.8 35.5 37.8 41.6 5.8 9.0 6.9 0.6 42.5 0.00 0.0411865 57.7
2021-05-04 09:25:00 42.3 79.0 36.3 38.6 42.3 5.8 8.1 6.0 40.4 25.9 0.00 0.0568518 57.7
2021-05-04 09:30:00 42.6 78.1 36.2 38.1 42.6 7.2 8.3 6.3 37.6 22.0 0.00 0.0624917 57.7
2021-05-04 09:35:00 43.3 77.8 36.8 41.5 43.3 3.5 8.7 6.0 1.1 30.1 0.00 0.0729207 57.7
2021-05-04 09:40:00 43.4 74.5 35.9 40.8 43.4 4.6 8.7 6.8 133.3 62.5 0.00 0.0735585 57.6
2021-05-04 09:45:00 43.2 73.9 35.5 39.3 43.2 6.5 11.0 7.8 48.7 67.4 0.00 0.0817331 57.6
2021-05-04 09:50:00 43.6 75.1 36.2 38.9 43.6 8.0 9.6 7.0 120.6 74.4 0.00 0.0753604 57.7
2021-05-04 09:55:00 43.2 77.4 36.6 39.0 43.2 6.9 7.6 5.4 23.9 23.4 0.00 0.0620976 57.7
2021-05-04 10:00:00 43.2 73.1 35.2 40.4 43.2 4.7 8.0 6.4 68.9 85.0 0.00 0.0726071 57.7
2021-05-04 10:05:00 43.3 75.8 36.2 38.4 43.3 8.3 8.3 5.5 141.8 45.4 0.00 0.0624702 57.7
2021-05-04 10:10:00 43.9 75.6 36.7 41.8 43.9 4.0 8.1 5.0 0.7 35.8 0.00 0.0686992 57.7
2021-05-04 10:15:00 43.7 71.5 35.1 40.8 43.7 4.9 10.6 6.9 125.6 40.8 0.00 0.0704627 57.8
2021-05-04 10:20:00 43.8 71.8 35.3 40.4 43.8 5.8 7.2 5.4 32.6 29.3 0.00 0.0804864 57.8
2021-05-04 10:25:00 44.6 73.7 36.7 40.9 44.6 6.5 8.1 6.0 0.5 27.3 0.00 0.0829345 57.8
2021-05-04 10:30:00 44.2 70.6 35.2 39.5 44.2 8.3 9.0 6.8 138.2 91.1 0.00 0.0705572 57.9
2021-05-04 10:35:00 44.6 73.5 36.6 40.2 44.6 8.0 8.7 6.1 63.6 75.7 0.00 0.0893471 57.9
2021-05-04 10:40:00 45.6 68.4 35.7 43.3 45.6 4.6 8.3 5.7 61.9 59.6 0.00 0.1787834 58.0
2021-05-04 10:45:00 46.9 70.9 37.9 42.9 46.9 8.0 8.1 3.6 0.8 33.7 0.00 0.1131410 58.0
2021-05-04 10:50:00 46.0 69.7 36.6 42.7 46.0 6.3 9.0 6.2 1.0 75.8 0.00 0.0920184 58.1
2021-05-04 10:55:00 46.5 69.1 36.9 42.9 46.5 7.2 9.6 7.3 96.6 59.1 0.00 0.1450904 58.2
2021-05-04 11:00:00 46.5 69.7 37.1 44.1 46.5 4.9 8.3 5.1 127.1 72.4 0.00 0.1319467 58.2
2021-05-04 11:05:00 45.8 72.4 37.5 42.3 45.8 6.7 7.8 5.8 94.7 52.2 0.00 0.0671714 58.3
2021-05-04 11:10:00 46.5 69.6 37.1 43.2 46.5 6.3 8.7 6.4 0.0 57.6 0.00 0.2027154 58.4
2021-05-04 11:15:00 47.2 65.7 36.3 43.8 47.2 6.9 8.5 5.0 11.5 35.2 0.00 0.1869990 58.5
2021-05-04 11:20:00 48.1 65.0 36.9 44.5 48.1 7.8 8.8 6.3 129.6 54.5 0.00 0.1765133 58.6
2021-05-04 11:25:00 48.5 63.7 36.8 46.3 48.5 5.3 8.3 5.7 59.9 15.3 0.00 0.1777743 58.7
2021-05-04 11:30:00 48.8 65.1 37.6 45.0 48.8 8.8 8.8 5.4 10.6 20.8 0.00 0.1754287 58.8
2021-05-04 11:35:00 48.8 63.7 37.0 48.8 48.8 1.9 8.8 4.8 0.8 13.9 0.00 0.1764897 58.9
2021-05-04 11:40:00 49.6 62.8 37.5 48.3 49.6 4.2 7.8 4.3 0.7 16.2 0.00 0.1562864 59.0
2021-05-04 11:45:00 49.4 62.9 37.3 48.5 49.4 3.7 10.3 6.1 0.6 9.2 0.00 0.1790384 59.1
2021-05-04 11:50:00 49.7 63.8 38.0 48.5 49.7 4.0 9.0 5.8 0.0 17.5 0.00 0.1799827 59.3
2021-05-04 11:55:00 50.9 58.7 36.9 50.9 50.9 6.3 6.3 3.2 129.9 15.7 0.00 0.1802721 59.4
2021-05-04 12:00:00 51.7 59.2 37.9 51.7 51.7 3.8 5.5 3.5 88.6 45.6 0.00 0.1799550 59.6
2021-05-04 12:05:00 51.5 58.5 37.5 51.5 51.5 4.9 10.3 6.6 145.0 27.1 0.00 0.1811708 59.8
2021-05-04 12:10:00 51.8 58.7 37.8 51.8 51.8 4.2 7.2 3.9 34.7 12.7 0.00 0.1831682 60.0
2021-05-04 12:15:00 52.4 56.8 37.5 52.4 52.4 6.7 12.4 6.2 4.2 20.3 0.00 0.1841032 60.2
2021-05-04 12:20:00 52.8 57.1 38.0 52.8 52.8 5.1 8.8 5.2 163.0 7.7 0.00 0.1851869 60.4
2021-05-04 12:25:00 52.7 55.4 37.2 52.7 52.7 5.3 10.3 6.1 21.0 25.8 0.00 0.1855368 60.5
2021-05-04 12:30:00 53.4 56.0 38.1 53.4 53.4 8.3 9.0 5.9 0.0 48.4 0.00 0.1854369 60.8
2021-05-04 12:35:00 53.4 54.9 37.6 53.4 53.4 5.5 12.6 7.5 138.0 49.0 0.00 0.1875042 61.0
2021-05-04 12:40:00 53.8 55.6 38.3 53.8 53.8 7.8 9.6 6.2 5.2 2.6 0.00 0.1884244 61.3
2021-05-04 12:45:00 54.4 53.4 37.8 54.4 54.4 7.2 10.8 7.3 0.8 9.8 0.00 0.1887134 61.5
2021-05-04 12:50:00 54.1 53.8 37.8 54.1 54.1 5.1 7.8 5.2 0.7 1.3 0.00 0.1878542 61.8
2021-05-04 12:55:00 55.4 51.1 37.6 55.4 55.4 5.3 11.3 6.0 0.9 21.9 0.00 0.1886377 62.0
2021-05-04 13:00:00 55.4 52.5 38.3 55.4 55.4 4.2 8.8 6.2 0.6 2.6 0.00 0.1905118 62.3
2021-05-04 13:05:00 56.2 50.5 38.0 56.2 56.2 7.4 11.7 6.4 0.7 7.2 0.00 0.1896708 62.5
2021-05-04 13:10:00 56.8 48.3 37.5 56.8 56.8 3.1 8.7 6.5 0.0 6.0 0.00 0.1901935 62.7
2021-05-04 13:15:00 57.9 47.4 38.0 57.9 57.9 8.0 9.4 5.1 5.2 21.8 0.00 0.1930182 63.0
2021-05-04 13:20:00 56.8 49.9 38.3 56.8 56.8 5.1 11.7 7.1 1.3 26.9 0.00 0.1983637 63.3
2021-05-04 13:25:00 57.4 46.7 37.1 57.4 57.4 11.2 12.2 7.8 148.4 31.4 0.00 0.1704119 63.5
2021-05-04 13:30:00 56.1 49.2 37.3 56.1 56.1 4.2 10.1 6.4 1.5 6.9 0.00 0.0958741 63.8
2021-05-04 13:35:00 55.9 49.2 37.1 55.9 55.9 4.0 6.5 4.9 0.6 0.6 0.00 0.1161611 64.0
2021-05-04 13:40:00 58.2 45.1 37.0 58.2 58.2 9.2 13.3 7.9 0.0 21.0 0.00 0.2108319 64.3
2021-05-04 13:45:00 58.4 44.9 37.1 58.4 58.4 9.6 12.2 8.1 142.1 11.9 0.00 0.2026055 64.5
2021-05-04 13:50:00 57.8 44.0 36.0 57.8 57.8 3.3 10.6 5.1 285.0 16.0 0.00 0.1755743 64.8
2021-05-04 13:55:00 59.8 43.8 37.7 59.8 59.8 8.7 8.7 4.7 97.4 32.7 0.00 0.2102523 65.0
2021-05-04 14:00:00 58.6 45.4 37.6 58.6 58.6 8.0 12.4 6.3 0.0 26.1 0.00 0.1196353 65.2
2021-05-04 14:05:00 59.3 42.9 36.7 59.3 59.3 6.9 9.9 7.0 123.2 18.2 0.00 0.1088276 65.5
2021-05-04 14:10:00 59.3 42.9 36.7 59.3 59.3 7.2 12.1 9.3 0.7 30.1 0.00 0.1806072 65.7
2021-05-04 14:15:00 58.6 43.2 36.2 58.6 58.6 4.7 10.3 5.0 1.0 12.3 0.00 0.1059601 65.9
2021-05-04 14:20:00 60.3 39.4 35.5 60.3 60.3 5.5 7.1 4.9 0.3 30.5 0.00 0.1909322 66.2
2021-05-04 14:25:00 60.4 39.4 35.5 60.4 60.4 8.8 8.8 6.2 184.5 30.3 0.00 0.1631255 66.5
2021-05-04 14:30:00 60.4 40.6 36.3 60.4 60.4 8.0 9.4 6.0 0.8 21.7 0.00 0.1627101 66.7
2021-05-04 14:35:00 60.1 41.5 36.7 60.1 60.1 5.6 10.3 6.8 0.0 25.7 0.00 0.1792704 66.9
2021-05-04 14:40:00 61.7 38.3 36.0 61.7 61.7 5.5 11.0 6.5 0.7 22.4 0.00 0.1814779 67.2
2021-05-04 14:45:00 61.4 38.5 35.9 61.4 61.4 7.6 10.3 6.0 62.8 47.3 0.00 0.1787993 67.4
2021-05-04 14:50:00 62.3 35.4 34.6 62.3 62.3 8.8 9.7 5.7 96.6 21.3 0.00 0.1399788 67.6
2021-05-04 14:55:00 61.4 36.2 34.3 61.4 61.4 9.2 9.4 6.3 0.6 25.7 0.00 0.0703219 67.9
2021-05-04 15:00:00 61.2 37.3 34.9 61.2 61.2 10.3 10.3 6.1 10.7 23.7 0.00 0.1234418 68.1
2021-05-04 15:05:00 61.5 35.9 34.2 61.5 61.5 6.3 9.0 6.2 56.7 34.9 0.00 0.1211750 68.3
2021-05-04 15:10:00 61.8 34.3 33.4 61.8 61.8 5.3 11.5 8.0 46.1 45.4 0.00 0.1712926 68.5
2021-05-04 15:15:00 62.7 34.6 34.3 62.7 62.7 5.6 8.7 4.4 1.3 47.6 0.00 0.1688441 68.7
2021-05-04 15:20:00 62.8 33.3 33.5 62.8 62.8 10.1 11.2 7.6 133.1 10.1 0.00 0.1588230 68.9
2021-05-04 15:25:00 61.9 33.5 32.8 61.9 61.9 3.7 9.6 6.6 10.8 28.1 0.00 0.1158454 69.2
2021-05-04 15:30:00 62.8 32.5 32.8 62.8 62.8 3.5 5.8 3.7 0.6 13.2 0.00 0.1319752 69.3
2021-05-04 15:35:00 63.1 33.7 34.1 63.1 63.1 9.4 14.0 6.9 91.0 31.6 0.00 0.1120471 69.5
2021-05-04 15:40:00 62.8 33.9 34.0 62.8 62.8 7.4 9.2 7.0 50.5 40.8 0.00 0.1401442 69.7
2021-05-04 15:45:00 63.3 32.5 33.3 63.3 63.3 2.4 8.3 3.9 133.1 29.1 0.00 0.1426365 69.9
2021-05-04 15:50:00 63.7 30.5 32.0 63.7 63.7 3.5 9.0 3.9 180.3 28.9 0.00 0.1382392 70.1
2021-05-04 15:55:00 63.7 31.8 33.1 63.7 63.7 8.0 8.1 5.3 122.5 13.4 0.00 0.1336456 70.3
2021-05-04 16:00:00 65.0 31.1 33.7 65.0 65.0 7.2 10.1 6.4 9.0 32.6 0.00 0.0657866 70.4
2021-05-04 16:05:00 64.4 28.9 31.4 64.4 64.4 2.1 10.3 4.7 129.9 23.0 0.00 0.1309575 70.6
2021-05-04 16:10:00 64.6 30.3 32.8 64.6 64.6 6.7 9.6 5.6 71.6 39.5 0.00 0.1307594 70.7
2021-05-04 16:15:00 64.7 30.1 32.6 64.7 64.7 3.8 8.3 5.8 1.1 39.4 0.00 0.1245536 70.9
2021-05-04 16:20:00 65.2 28.9 32.1 65.2 65.2 6.9 10.6 7.1 3.9 31.4 0.00 0.1203260 71.0
2021-05-04 16:25:00 65.4 29.9 33.1 65.4 65.4 12.2 13.1 6.6 17.2 22.4 0.00 0.1167476 71.2
2021-05-04 16:30:00 65.2 29.6 32.6 65.2 65.2 6.3 12.6 9.1 0.8 24.8 0.00 0.1140826 71.3
2021-05-04 16:35:00 65.7 28.8 32.4 65.7 65.7 6.0 12.6 9.0 42.7 40.7 0.00 0.1115053 71.4
2021-05-04 16:40:00 66.7 23.3 28.0 66.7 66.7 7.1 11.2 7.4 43.6 30.5 0.00 0.1105582 71.6
2021-05-04 16:45:00 66.8 24.2 29.0 66.8 66.8 7.2 9.6 5.8 1.7 19.9 0.00 0.1059855 71.7
2021-05-04 16:50:00 66.7 28.9 33.3 66.7 66.7 8.8 14.6 9.5 25.9 27.2 0.00 0.1020674 71.8
2021-05-04 16:55:00 66.5 16.5 19.6 66.5 66.5 5.6 14.9 9.7 47.0 19.0 0.00 0.0994206 72.0
2021-05-04 17:00:00 67.9 15.4 19.1 67.9 67.9 6.3 11.2 6.6 159.5 28.2 0.00 0.0966865 72.1
2021-05-04 17:05:00 68.2 15.1 19.0 68.2 68.2 7.1 13.5 8.7 0.0 38.1 0.00 0.0930765 72.2
2021-05-04 17:10:00 68.4 13.5 16.6 68.4 68.4 6.7 12.4 9.3 23.7 42.8 0.00 0.0900663 72.3
2021-05-04 17:15:00 68.7 14.8 18.8 68.7 68.7 8.7 14.4 8.4 12.6 15.5 0.00 0.0864841 72.4
2021-05-04 17:20:00 68.3 15.6 19.8 68.3 68.3 8.0 15.8 10.1 96.3 35.6 0.00 0.0836056 72.5
2021-05-04 17:25:00 68.4 15.5 19.6 68.4 68.4 9.7 15.1 8.6 67.1 48.4 0.00 0.0804666 72.6
2021-05-04 17:30:00 68.3 14.6 18.1 68.3 68.3 10.8 14.9 11.0 179.8 20.4 0.00 0.0772870 72.7
2021-05-04 17:35:00 68.8 14.3 18.1 68.8 68.8 13.7 13.7 9.0 2.3 28.1 0.00 0.0742888 72.8
2021-05-04 17:40:00 68.7 14.9 19.0 68.7 68.7 8.3 12.1 9.2 115.4 57.7 0.00 0.0711076 72.8
2021-05-04 17:45:00 68.3 15.3 19.3 68.3 68.3 10.6 12.6 8.4 21.0 46.6 0.00 0.0645144 72.9
2021-05-04 17:50:00 67.6 15.5 19.0 67.6 67.6 9.4 12.4 8.3 74.5 48.6 0.00 0.0529026 73.0
2021-05-04 17:55:00 67.4 14.6 17.5 67.4 67.4 2.2 13.3 7.5 0.0 53.8 0.00 0.0578591 73.0
2021-05-04 18:00:00 68.4 14.5 18.1 68.4 68.4 1.5 5.5 2.7 107.5 23.0 0.00 0.0561318 73.0
2021-05-04 18:05:00 68.0 26.5 32.3 68.0 68.0 8.3 8.7 3.3 1.0 21.4 0.00 0.0474824 73.1
2021-05-04 18:10:00 64.6 32.8 34.7 64.6 64.6 8.1 9.4 7.0 0.0 13.2 0.00 0.0484857 73.1
2021-05-04 18:15:00 63.5 33.5 34.3 63.5 63.5 10.8 11.7 8.6 0.6 5.1 0.00 0.0487213 73.1
2021-05-04 18:20:00 62.8 34.0 34.0 62.8 62.8 16.7 16.7 11.7 0.6 16.5 0.00 0.0456124 73.1
2021-05-04 18:25:00 62.3 36.1 35.0 62.3 62.3 9.9 17.1 12.3 110.1 35.0 0.00 0.0391508 73.1
2021-05-04 18:30:00 61.7 36.6 34.9 61.7 61.7 11.5 16.2 11.7 97.7 50.4 0.00 0.0323072 73.1
2021-05-04 18:35:00 61.6 36.9 35.0 61.6 61.6 13.5 15.6 11.2 38.3 56.0 0.00 0.0373696 73.1
2021-05-04 18:40:00 61.3 37.7 35.2 61.3 61.3 9.0 14.0 10.6 90.7 66.5 0.00 0.0270848 73.2
2021-05-04 18:45:00 61.0 38.3 35.5 61.0 61.0 6.5 13.1 9.5 0.8 39.4 0.00 0.0269856 73.1
2021-05-04 18:50:00 60.7 38.7 35.4 60.7 60.7 11.5 12.1 9.3 118.5 86.7 0.00 0.0257221 73.1
2021-05-04 18:55:00 60.3 39.6 35.7 60.3 60.3 9.7 15.5 10.5 120.7 69.9 0.00 0.0216068 73.1
2021-05-04 19:00:00 59.5 41.0 35.8 59.5 59.5 9.2 15.1 10.9 8.3 87.6 0.00 0.0122418 73.1
2021-05-04 19:05:00 59.4 41.5 36.0 59.4 59.4 8.5 12.8 9.8 125.2 73.6 0.00 0.0181332 73.1
2021-05-04 19:10:00 59.3 41.9 36.2 59.3 59.3 10.1 13.1 9.9 8.3 60.6 0.00 0.0179219 73.0
2021-05-04 19:15:00 58.4 43.1 36.1 58.4 58.4 11.5 14.7 11.0 55.2 58.6 0.00 0.0092973 73.0
2021-05-04 19:20:00 58.0 43.9 36.2 58.0 58.0 9.9 13.7 10.9 77.9 92.9 0.00 0.0138390 72.9
2021-05-04 19:25:00 57.9 44.9 36.6 57.9 57.9 7.4 13.0 10.1 114.3 84.2 0.00 0.0104902 72.9
2021-05-04 19:30:00 57.5 44.9 36.2 57.5 57.5 13.5 13.5 10.4 0.0 60.1 0.00 0.0078684 72.8
2021-05-04 19:35:00 57.1 45.8 36.4 57.1 57.1 9.0 13.0 10.2 0.9 71.7 0.00 0.0059793 72.8
2021-05-04 19:40:00 56.7 46.7 36.6 56.7 56.7 8.7 14.6 10.1 0.8 76.2 0.00 0.0030423 72.7
2021-05-04 19:45:00 56.2 47.7 36.6 56.2 56.2 13.0 16.7 12.6 107.3 64.4 0.00 0.0003218 72.6
2021-05-04 19:50:00 55.9 48.7 36.8 55.9 55.9 11.5 15.6 11.7 0.0 78.1 0.00 0.0000000 72.6
2021-05-04 19:55:00 55.6 49.3 36.9 55.6 55.6 12.4 16.2 13.0 10.4 51.9 0.00 0.0000000 72.4
2021-05-04 20:00:00 55.3 50.1 37.0 55.3 55.3 12.4 13.7 10.6 112.1 72.5 0.00 0.0000000 72.4
2021-05-04 20:05:00 55.1 50.8 37.2 55.1 55.1 8.8 13.3 10.4 49.8 71.7 0.00 0.0000000 72.2
2021-05-04 20:10:00 54.8 51.4 37.2 54.8 54.8 8.0 12.8 10.2 123.2 70.4 0.00 0.0000000 72.2
2021-05-04 20:15:00 54.5 51.6 37.1 54.5 54.5 9.9 14.4 11.1 109.3 50.0 0.00 0.0000000 72.1
2021-05-04 20:20:00 54.5 52.1 37.3 54.5 54.5 8.7 13.0 10.1 15.6 50.6 0.00 0.0000000 71.9
2021-05-04 20:25:00 54.1 52.6 37.2 54.1 54.1 7.8 12.2 9.5 0.7 69.3 0.00 0.0000000 71.9
2021-05-04 20:30:00 54.1 53.0 37.3 54.1 54.1 9.9 12.4 9.8 130.5 75.2 0.00 0.0000000 71.7
2021-05-04 20:35:00 53.7 53.7 37.3 53.7 53.7 7.6 11.2 8.0 41.0 70.5 0.00 0.0000000 71.6
2021-05-04 20:40:00 53.6 53.6 37.1 53.6 53.6 9.0 12.2 9.5 55.6 59.1 0.00 0.0000000 71.5
2021-05-04 20:45:00 53.5 53.8 37.1 53.5 53.5 9.7 11.5 9.1 124.9 78.2 0.00 0.0000000 71.4
2021-05-04 20:50:00 53.1 54.0 36.9 53.1 53.1 7.6 11.2 9.1 153.2 78.9 0.00 0.0000000 71.3
2021-05-04 20:55:00 53.0 54.4 37.0 53.0 53.0 8.3 12.8 9.5 126.7 50.7 0.00 0.0000000 71.2
2021-05-04 21:00:00 52.7 54.7 36.8 52.7 52.7 10.1 12.4 9.5 45.6 42.9 0.00 0.0000000 71.1
2021-05-04 21:05:00 52.6 54.8 36.8 52.6 52.6 9.9 14.2 10.8 4.6 39.3 0.00 0.0000000 71.0
2021-05-04 21:10:00 52.4 55.3 36.8 52.4 52.4 9.2 12.2 10.0 28.5 47.1 0.00 0.0000000 70.9
2021-05-04 21:15:00 52.1 55.3 36.6 52.1 52.1 8.0 12.4 10.4 86.1 51.1 0.00 0.0000000 70.7
2021-05-04 21:20:00 52.1 55.6 36.6 52.1 52.1 10.8 14.0 10.1 35.4 59.1 0.00 0.0000000 70.6
2021-05-04 21:25:00 51.7 56.2 36.6 51.7 51.7 8.5 10.3 8.4 102.0 82.2 0.00 0.0000000 70.5
2021-05-04 21:30:00 51.5 56.9 36.7 51.5 51.5 7.6 11.2 8.2 89.7 81.6 0.00 0.0000000 70.4
2021-05-04 21:35:00 51.2 57.4 36.7 51.2 51.2 9.6 9.6 7.4 64.3 71.9 0.00 0.0000000 70.3
2021-05-04 21:40:00 51.0 57.6 36.6 51.0 51.0 5.5 10.8 7.4 153.8 96.7 0.00 0.0000000 70.1
2021-05-04 21:45:00 50.8 57.9 36.5 50.8 50.8 7.8 8.7 7.0 38.3 96.6 0.00 0.0000000 70.0
2021-05-04 21:50:00 50.6 58.6 36.6 50.6 50.6 5.1 7.2 5.9 111.3 88.4 0.00 0.0000000 69.9
2021-05-04 21:55:00 50.3 59.1 36.6 50.3 50.3 7.1 7.6 6.1 155.7 110.4 0.00 0.0000000 69.8
2021-05-04 22:00:00 50.2 59.4 36.6 50.2 50.2 5.6 7.2 5.9 35.1 117.8 0.00 0.0000000 69.7
2021-05-04 22:05:00 49.8 60.1 36.5 47.6 49.8 5.6 7.6 6.0 135.1 102.9 0.00 0.0000000 69.5
2021-05-04 22:10:00 49.6 60.9 36.6 47.0 49.6 6.2 7.8 6.1 149.7 98.9 0.00 0.0000000 69.4
2021-05-04 22:15:00 49.1 61.9 36.6 46.8 49.1 5.5 7.6 5.9 91.6 100.0 0.00 0.0000000 69.3
2021-05-04 22:20:00 48.8 62.2 36.5 47.6 48.8 3.8 6.5 4.5 0.7 69.3 0.00 0.0000000 69.2
2021-05-04 22:25:00 48.7 62.6 36.5 47.6 48.7 3.7 5.5 4.2 21.3 58.7 0.00 0.0000000 69.1
2021-05-04 22:30:00 48.5 63.1 36.5 47.5 48.5 3.5 4.0 3.3 0.8 113.2 0.00 0.0000000 69.0
2021-05-04 22:35:00 48.3 63.1 36.4 48.3 48.3 2.4 4.0 3.2 48.6 65.9 0.00 0.0000000 68.8
2021-05-04 22:40:00 47.8 64.4 36.4 46.9 47.8 3.3 3.8 3.1 102.5 112.8 0.00 0.0000000 68.7
2021-05-04 22:45:00 47.7 64.9 36.4 46.3 47.7 3.8 4.7 4.1 173.6 116.4 0.00 0.0000000 68.6
2021-05-04 22:50:00 47.4 65.4 36.4 47.4 47.4 2.6 4.0 3.5 67.4 106.0 0.00 0.0000000 68.5
2021-05-04 22:55:00 47.4 65.5 36.4 46.5 47.4 3.1 3.1 2.6 0.0 118.9 0.00 0.0000000 68.4
2021-05-04 23:00:00 46.5 67.4 36.3 45.4 46.5 3.3 3.5 2.5 35.0 68.1 0.00 0.0000000 68.3
2021-05-04 23:05:00 46.4 68.1 36.4 44.6 46.4 4.0 4.0 3.0 2.6 32.1 0.00 0.0000000 68.2
2021-05-04 23:10:00 46.7 68.0 36.7 45.8 46.7 3.1 4.4 3.1 0.0 18.2 0.00 0.0000000 68.1
2021-05-04 23:15:00 46.7 67.4 36.5 46.7 46.7 0.8 2.8 1.8 0.8 26.0 0.00 0.0000000 67.9
2021-05-04 23:20:00 46.4 68.1 36.4 46.4 46.4 1.3 1.9 1.1 160.9 93.6 0.00 0.0000000 67.8
2021-05-04 23:25:00 45.9 69.6 36.5 45.9 45.9 1.5 1.5 0.3 1.3 119.2 0.00 0.0000000 67.7
2021-05-04 23:30:00 45.4 70.9 36.5 45.4 45.4 1.7 2.4 1.9 178.9 45.1 0.00 0.0000000 67.6
2021-05-04 23:35:00 45.6 70.2 36.4 45.6 45.6 3.0 3.0 1.9 0.0 120.2 0.00 0.0000000 67.5
2021-05-04 23:40:00 45.9 68.5 36.1 43.6 45.9 4.7 5.5 4.3 0.0 101.1 0.00 0.0000000 67.3
2021-05-04 23:45:00 46.4 66.9 36.0 44.4 46.4 4.4 5.5 4.7 179.1 75.0 0.00 0.0000000 67.2
2021-05-04 23:50:00 46.3 67.5 36.2 45.2 46.3 3.3 4.7 3.9 20.3 75.1 0.00 0.0000000 67.1
2021-05-04 23:55:00 47.3 62.5 35.1 45.8 47.3 3.8 6.5 4.4 154.2 102.5 0.00 0.0000000 67.0
2021-05-05 00:00:00 47.8 61.8 35.3 46.8 47.8 3.3 4.4 3.6 103.8 98.8 0.00 0.0000000 66.9

Data is courtesy of the NM Climate Center. DO NOT USE IN LEGAL PROCEEDINGS.